Airfield :







YOU CAN JOIN US ON...

 
LOGIN :

Register | Disclaimer

   EN    FR    IT 

 









Legend :    VFR   Marginal VFR   IFR   Intensive IFR   Very Intensive IFR
Visi :
Ceiling :
>= 8 km
>= 3000ft
5 to 8 km
1000 to 3000 ft
1500m to 5 km
500 to 1000 ft
800 to 1500m
200 to 500 ft
< 800m
< 200 ft
Symbols :   Thunderstorms  Fog  Heavy snow  Heavy precipitations  Wind > 20 kt






- Airport Elevation : 124 ft
- IATA code : YGV


CYGV - Havre St Pierre

CURRENT METAR :
  • 270100Z AUTO VRB02KT 9SM CLR 11/10 A3003 RMK SLP172

EXPIRED METARs :
  • 270000Z AUTO VRB02KT 9SM CLR 12/10 A2999 RMK SLP159
  • 262300Z AUTO 27008KT 9SM CLR 13/10 A2997 RMK SLP152

TAF TAF CYGV
Valid from the 26 at 20:00 until the 27 at 08:00 UTC


261942Z 2620/2708 27015G25KT P6SM SCT030 BKN240
BECMG 2620/2622 26012KT
FM270000 02005KT P6SM BKN240 RMK FCST BASED ON AUTO OBS. NXT FCST BY 270200Z
CZUL FIR / North America



MET'MAP, your aeronautical weather chart ! - Copyright ORBIFLY December 2007 - Disclaimer

ORBIFLY MET'MAP TEAM :

Programming & Development : Alexandra Zaïnal
Concept & original design : Baudouin d'Aumeries
Assistance for programming : Marc-Olivier Méhu
Technical & hardware support : Manuel Goepfert

Contact : metmap@orbifly.com




SOURCES & CREDITS :

   NOAA